Osceola, MO (64776)

9:15 AM CDT on October 22, 2014 (GMT -0500)
Gordon's Orchard | Change Station
CLOSE
Current Station
Personal Weather Station
Location: Collins, MO
Elevation: 925 ft
Nearby Weather Stations

Elev 925 ft 37.98 °N, 93.65 °W | Updated 13 minutes ago

Clear
Clear
54.5 °F
Feels Like 54.5 °F
N
8.3
Wind Variable Wind from SE

Today
High -- | Low -- °F
--% Chance of Precip.
Yesterday
High -- | Low -- °F
Precip. -- in
7:30 AM 6:28 PM
Waning Crescent, 2% visible
Pressure 30.24 in
Visibility 5.0 miles
Clouds Clear
Dew Point 47 °F
Humidity 75%
Rainfall 0.00 in
Snow Depth Not available.
UV 1 out of 12
Pollen 2.70 out of 12
Air Quality Not available.
Flu Activity No Activity
METAR KGLY 221415Z AUTO 14007KT 5SM HZ CLR 12/08 A3024 RMK AO2

More Conditions Fewer Conditions

Pressure 30.24 in
Visibility 5.0 miles
Clouds Clear
Dew Point 47 °F
Humidity 75%
Rainfall 0.00 in
Snow Depth Not available.
UV 1 out of 12
Pollen 2.70 out of 12
Air Quality Not available.
Flu Activity No Activity
METAR KGLY 221415Z AUTO 14007KT 5SM HZ CLR 12/08 A3024 RMK AO2

More Conditions Fewer Conditions

10-Day Weather Forecast

Almanac

Astronomy

Oct. 22, 2014 Rise Set
Actual Time 7:30 AM CDT 6:28 PM CDT
Civil Twilight 7:04 AM CDT 6:54 PM CDT
Nautical Twilight 6:33 AM CDT 7:25 PM CDT
Astronomical Twilight 6:02 AM CDT 7:56 PM CDT
Moon 6:14 AM CDT 5:54 PM CDT
Length of Visible Light 11h 50m
Length of Day
10h 57m
Tomorrow will be 2m 17s shorter.
Waning Crescent, 2% of the Moon is Illuminated
Today
Waning Crescent
Oct 23
New
Oct 30
First Quarter
Nov 6
Full
Nov 14
Last Quarter

Today's Extremes

State Highs State Lows

Community

WunderPhotos

Upload Photos

1,763,927 photos uploaded!

WunderBlogs® & News

Nearby

Snow Depth

Station Depth Elevation
No new snow has been reported.

Earthquake Activity

City Distance Mag. Time & Date
No recent earthquake activity has been reported nearby.
Minimum magnitude displayed is 2.5.

Coastal Water Temperatures

Place Temperature
No Stations Reporting

Nearby Weather Stations